Stacja Pogody Warszawa Praga Północ 


Stacja Pogody
Warszawa Praga Północ

 Szerokość N 52° 15 '43"    Długość E 21° 01' 22"    Wysokość 89 m n.p.m.


Wschód Słońca 06:19 Górowanie Słońca 11:48 Zachód Słońca 17:16 ryby
Data juliańska 2457085.846 Odległość Słońca 148279224 km Średn. kątowa Słońca 0,323°
Wschód Księżyca 15:15 Zachód Księżyca 05:00 Wiek Księżyca 13 dni Moon
Widoczność Księżyca 94,97% Odległość Księżyca 403398 km Średn. kątowa Księżyca 0,296°
Dzień krótszy od najdłuższego o: 05:49 Długość dnia 10:57 Imieniny Maryny, Kunegundy, Tycjana




Warunki pogodowe uaktualnione 03-03-2015, o godzinie 08:14
Temperatura 2.6 °C → Temperatura odczuwalna -4.1 °C
Punkt rosy -0.8 °C Humidex 0.2 °C
Deszcz na godzinę 0.0 mm Wilgotność względna 78% ↑
Prędkość wiatru (średnia) 8 km/h → Prędkość wiatru (podmuch) 23 km/h
Kierunek wiatru SW Skala Beaufort'a 4
Średni przepływ wiatru w ciągu ostatniej godziny 8 km
Ciśnienie względne  1009 hPa Trend ciśnienia wzrost
Ciśnienie bezwzględne  997 hPa Podstawa chmur 510.3 m
METAR EPWA 030700Z 26011KT 230V290 CAVOK 02/M02 Q1009 BECMG BKN012





 a

Valid XHTML 1.0 Transitional Valid CSS!